createdAt,value
2023-04-15T05:08:56.532Z,10.56
2023-04-15T05:11:23.035Z,10.48
2023-04-15T05:13:49.624Z,10.48
2023-04-15T05:16:16.737Z,10.57
2023-04-15T05:18:43.241Z,10.79
2023-04-15T05:21:10.423Z,10.72
2023-04-15T05:23:37.551Z,10.80
2023-04-15T05:26:04.171Z,11.00
2023-04-15T05:28:30.899Z,11.15
2023-04-15T05:30:57.607Z,10.80
2023-04-15T05:33:24.241Z,11.05
2023-04-15T05:35:51.061Z,11.17
2023-04-15T05:38:17.610Z,11.40
2023-04-15T05:40:44.193Z,11.42
2023-04-15T05:43:10.741Z,11.60
2023-04-15T05:45:37.279Z,11.63
2023-04-15T05:48:04.092Z,11.42
2023-04-15T05:50:30.979Z,11.57
2023-04-15T05:52:57.867Z,11.77
2023-04-15T05:55:24.425Z,11.42
2023-04-15T05:57:51.122Z,11.52
2023-04-15T06:00:17.956Z,11.41
2023-04-15T06:02:45.016Z,11.79
2023-04-15T06:05:11.927Z,11.92
2023-04-15T06:07:38.755Z,12.17
2023-04-15T06:10:09.068Z,12.40
2023-04-15T06:12:36.050Z,12.35
2023-04-15T06:15:02.685Z,12.59
2023-04-15T06:17:29.423Z,12.45
2023-04-15T06:19:56.121Z,12.58
2023-04-15T06:22:23.756Z,12.49
2023-04-15T06:24:51.269Z,12.19
2023-04-15T06:27:18.092Z,12.18
2023-04-15T06:29:44.832Z,11.79
2023-04-15T06:32:12.973Z,11.83
2023-04-15T06:34:39.644Z,11.54
2023-04-15T06:37:06.567Z,12.20
2023-04-15T06:39:33.281Z,12.34
2023-04-15T06:41:59.884Z,12.44
2023-04-15T06:44:26.724Z,12.58
2023-04-15T06:46:53.377Z,12.58
2023-04-15T06:49:22.496Z,12.75
2023-04-15T06:51:49.269Z,12.84
2023-04-15T06:54:15.770Z,12.75
2023-04-15T06:56:42.867Z,12.82
2023-04-15T06:59:09.681Z,12.33
2023-04-15T07:01:36.627Z,12.61
2023-04-15T07:04:03.318Z,12.88
2023-04-15T07:06:30.143Z,13.06
2023-04-15T07:08:57.877Z,13.41
2023-04-15T07:11:26.515Z,13.14
2023-04-15T07:13:53.236Z,13.25
2023-04-15T07:16:25.492Z,13.60
2023-04-15T07:18:53.260Z,13.69
2023-04-15T07:21:19.904Z,14.06
2023-04-15T07:23:46.498Z,14.47
2023-04-15T07:26:13.932Z,14.55
2023-04-15T07:28:40.590Z,14.85
2023-04-15T07:31:07.214Z,14.65
2023-04-15T07:33:33.820Z,14.64
2023-04-15T07:36:00.315Z,13.76
2023-04-15T07:38:27.077Z,14.16
2023-04-15T07:40:54.235Z,14.31
2023-04-15T07:43:21.216Z,14.13
2023-04-15T07:45:47.837Z,14.60
2023-04-15T07:48:14.352Z,14.73
2023-04-15T07:50:40.940Z,14.18
2023-04-15T07:53:07.561Z,13.45
2023-04-15T07:55:34.234Z,13.92
2023-04-15T07:58:01.970Z,13.97
2023-04-15T08:00:28.709Z,14.56
2023-04-15T08:02:57.465Z,15.07
2023-04-15T08:05:24.392Z,14.83
2023-04-15T08:07:51.620Z,14.93
2023-04-15T08:10:38.464Z,14.33
2023-04-15T08:13:04.999Z,13.59
2023-04-15T08:15:32.924Z,13.50
2023-04-15T08:18:01.081Z,13.20
2023-04-15T08:20:27.716Z,13.32
2023-04-15T08:22:54.358Z,13.09
2023-04-15T08:25:21.284Z,12.45
2023-04-15T08:27:48.230Z,12.52
2023-04-15T08:30:15.276Z,12.73
2023-04-15T08:32:42.911Z,12.91
2023-04-15T08:35:10.371Z,12.63
2023-04-15T08:37:36.903Z,12.33
2023-04-15T08:40:04.808Z,12.53
2023-04-15T08:42:36.919Z,12.78
2023-04-15T08:45:05.252Z,12.93
2023-04-15T08:47:33.708Z,13.03
2023-04-15T08:50:04.384Z,13.29
2023-04-15T08:52:52.217Z,13.72
2023-04-15T08:55:20.553Z,13.21
2023-04-15T08:57:47.603Z,13.25
2023-04-15T09:00:14.796Z,12.87
2023-04-15T09:02:41.602Z,12.78
2023-04-15T09:05:08.669Z,12.70
2023-04-15T09:07:36.526Z,12.51
2023-04-15T09:10:04.304Z,12.22
2023-04-15T09:12:31.675Z,12.29
2023-04-15T09:14:59.113Z,12.69
2023-04-15T09:17:26.638Z,12.78
2023-04-15T09:20:13.599Z,12.36
2023-04-15T09:22:42.266Z,12.68
2023-04-15T09:25:31.127Z,12.79
2023-04-15T09:28:04.123Z,12.42
2023-04-15T09:30:31.249Z,12.95
2023-04-15T09:33:00.590Z,11.94
2023-04-15T09:35:27.775Z,12.34
2023-04-15T09:38:03.157Z,12.20
2023-04-15T09:40:37.137Z,12.46
2023-04-15T09:43:08.202Z,12.66
2023-04-15T09:45:36.485Z,13.07
2023-04-15T09:48:23.859Z,13.25
2023-04-15T09:50:50.659Z,13.01
2023-04-15T09:53:19.219Z,12.63
2023-04-15T09:55:51.198Z,12.86
2023-04-15T09:58:31.663Z,12.97
2023-04-15T10:00:59.931Z,13.53
2023-04-15T10:03:29.228Z,13.78
2023-04-15T10:05:57.495Z,13.19
2023-04-15T10:08:26.098Z,12.91
2023-04-15T10:10:53.479Z,13.22
2023-04-15T10:13:24.774Z,12.47
2023-04-15T10:16:12.516Z,12.65
2023-04-15T10:18:43.766Z,12.79
2023-04-15T10:21:10.763Z,12.46
2023-04-15T10:23:38.765Z,11.96
2023-04-15T10:26:07.467Z,11.83
2023-04-15T10:28:34.860Z,11.97
2023-04-15T10:31:01.932Z,11.85
2023-04-15T10:33:29.713Z,12.08
2023-04-15T10:35:56.742Z,12.19
2023-04-15T10:38:39.329Z,12.20
2023-04-15T10:41:14.396Z,12.70
2023-04-15T10:43:47.732Z,12.77
2023-04-15T10:46:17.008Z,12.94
2023-04-15T10:48:53.937Z,12.96
2023-04-15T10:51:28.749Z,13.04
2023-04-15T10:53:59.798Z,13.91
2023-04-15T10:56:31.395Z,13.57
2023-04-15T10:59:01.476Z,14.26
2023-04-15T11:02:00.151Z,18.32
2023-04-15T11:04:56.057Z,20.85
2023-04-15T11:07:41.057Z,22.39
2023-04-15T11:10:13.699Z,20.37
2023-04-15T11:12:41.841Z,18.49
2023-04-15T11:15:33.257Z,17.59
2023-04-15T11:18:08.913Z,16.35
2023-04-15T11:20:36.316Z,15.07
2023-04-15T11:23:14.007Z,14.12
2023-04-15T11:25:41.753Z,13.68
2023-04-15T11:28:08.658Z,13.87
2023-04-15T11:30:37.335Z,13.73
2023-04-15T11:33:09.113Z,13.62
2023-04-15T11:35:36.298Z,12.83
2023-04-15T11:38:11.863Z,13.24
2023-04-15T11:40:39.011Z,13.12
2023-04-15T11:43:20.753Z,13.17
2023-04-15T11:45:53.041Z,13.05
2023-04-15T11:48:21.739Z,13.55
2023-04-15T11:51:00.071Z,13.84
2023-04-15T11:53:47.043Z,12.66
2023-04-15T11:56:18.284Z,13.14
2023-04-15T11:58:46.420Z,13.23
2023-04-15T12:01:13.332Z,13.11
2023-04-15T12:03:43.652Z,13.31
2023-04-15T12:06:21.853Z,12.88
2023-04-15T12:09:06.700Z,12.39
2023-04-15T12:11:40.575Z,12.76
2023-04-15T12:14:33.029Z,12.66
2023-04-15T12:17:02.035Z,12.67
2023-04-15T12:19:37.389Z,13.00
2023-04-15T12:22:09.384Z,12.71
2023-04-15T12:24:37.352Z,12.65
2023-04-15T12:27:09.224Z,12.44
2023-04-15T12:29:37.353Z,13.08
2023-04-15T12:32:12.320Z,13.52
2023-04-15T12:34:49.702Z,13.53
2023-04-15T12:37:16.882Z,13.48
2023-04-15T12:39:45.628Z,13.49
2023-04-15T12:42:12.919Z,13.45
2023-04-15T12:44:39.680Z,13.69
2023-04-15T12:47:07.969Z,13.61
2023-04-15T12:49:34.854Z,13.32
2023-04-15T12:52:02.392Z,13.59
2023-04-15T12:54:29.914Z,13.72
2023-04-15T12:56:56.838Z,13.64
2023-04-15T12:59:24.139Z,13.73
2023-04-15T13:01:52.379Z,13.56
2023-04-15T13:04:20.657Z,13.88
2023-04-15T13:06:47.668Z,13.49
2023-04-15T13:09:14.323Z,13.12
2023-04-15T13:11:41.278Z,13.41
2023-04-15T13:14:09.083Z,13.29
2023-04-15T13:16:35.993Z,13.50
2023-04-15T13:19:03.911Z,13.58
2023-04-15T13:21:34.963Z,13.95
2023-04-15T13:24:01.940Z,14.28
2023-04-15T13:26:28.594Z,14.49
2023-04-15T13:28:55.090Z,14.66
2023-04-15T13:31:21.667Z,14.77
2023-04-15T13:33:48.283Z,14.49
2023-04-15T13:36:14.888Z,14.26
2023-04-15T13:38:41.458Z,13.60
2023-04-15T13:41:07.979Z,12.69
2023-04-15T13:43:37.526Z,12.38
2023-04-15T13:46:04.131Z,12.50
2023-04-15T13:48:30.758Z,12.33
2023-04-15T13:50:57.256Z,12.23
2023-04-15T13:53:34.003Z,12.33
2023-04-15T13:56:08.830Z,12.40
2023-04-15T13:58:36.914Z,12.39
2023-04-15T14:01:05.845Z,12.35
2023-04-15T14:03:34.743Z,12.15
2023-04-15T14:06:01.557Z,12.37
2023-04-15T14:08:28.236Z,12.20
2023-04-15T14:10:54.845Z,12.45
2023-04-15T14:13:21.335Z,12.38
2023-04-15T14:15:47.885Z,12.37
2023-04-15T14:18:14.704Z,12.56
2023-04-15T14:20:41.228Z,12.28
2023-04-15T14:23:07.931Z,12.27
2023-04-15T14:25:34.613Z,12.29
2023-04-15T14:28:02.338Z,12.14
2023-04-15T14:30:29.006Z,12.19
2023-04-15T14:32:55.733Z,12.27
2023-04-15T14:35:24.474Z,12.23
2023-04-15T14:37:51.153Z,12.27
2023-04-15T14:40:17.699Z,12.27
2023-04-15T14:42:44.267Z,12.07
2023-04-15T14:45:11.019Z,12.31
2023-04-15T14:47:37.717Z,12.42
2023-04-15T14:50:04.666Z,12.55
2023-04-15T14:52:38.732Z,12.34
2023-04-15T14:55:10.339Z,12.54
2023-04-15T14:57:41.235Z,12.30
2023-04-15T15:00:09.892Z,12.25
2023-04-15T15:02:39.779Z,12.07
2023-04-15T15:05:07.986Z,11.89
2023-04-15T15:07:36.814Z,11.94
2023-04-15T15:10:05.678Z,11.89
2023-04-15T15:12:32.809Z,12.00
2023-04-15T15:14:59.765Z,12.06
2023-04-15T15:17:27.355Z,11.96
2023-04-15T15:19:53.896Z,12.04
2023-04-15T15:22:21.479Z,11.69
2023-04-15T15:24:48.388Z,11.82
2023-04-15T15:27:14.984Z,11.85
2023-04-15T15:29:41.577Z,11.84
2023-04-15T15:32:08.172Z,11.79
2023-04-15T15:34:34.843Z,11.80
2023-04-15T15:37:01.423Z,11.64
2023-04-15T15:39:27.955Z,11.49
2023-04-15T15:41:54.950Z,11.25
2023-04-15T15:44:21.470Z,11.08
2023-04-15T15:46:48.094Z,11.06
2023-04-15T15:49:14.771Z,11.33
2023-04-15T15:51:41.421Z,11.19
2023-04-15T15:54:08.057Z,11.28
2023-04-15T15:56:35.092Z,11.45
2023-04-15T15:59:01.766Z,11.44
2023-04-15T16:01:28.387Z,11.46
2023-04-15T16:03:55.082Z,11.42
2023-04-15T16:06:21.818Z,11.60
2023-04-15T16:08:48.435Z,11.63
2023-04-15T16:11:15.022Z,11.71
2023-04-15T16:13:41.537Z,11.43
2023-04-15T16:16:08.089Z,11.44
2023-04-15T16:18:35.419Z,11.51
2023-04-15T16:21:02.091Z,11.67
2023-04-15T16:23:28.747Z,11.74
2023-04-15T16:25:55.379Z,11.83
2023-04-15T16:28:26.729Z,11.78
2023-04-15T16:30:54.662Z,11.75
2023-04-15T16:33:21.313Z,11.58
2023-04-15T16:35:47.896Z,11.82
2023-04-15T16:38:14.498Z,11.79
2023-04-15T16:40:41.260Z,11.52
2023-04-15T16:43:11.061Z,11.80
2023-04-15T16:45:37.922Z,11.85
2023-04-15T16:48:04.855Z,11.89
2023-04-15T16:50:31.599Z,11.96
2023-04-15T16:52:58.211Z,11.90
2023-04-15T16:55:24.941Z,11.71
2023-04-15T16:58:01.573Z,11.90
2023-04-15T17:00:31.361Z,11.82
2023-04-15T17:02:58.872Z,11.73
2023-04-15T17:05:44.677Z,11.75
2023-04-15T17:08:31.565Z,11.84
2023-04-15T17:11:19.194Z,11.82
2023-04-15T17:14:09.273Z,11.76
2023-04-15T17:16:56.187Z,11.61
2023-04-15T17:19:43.154Z,11.73
2023-04-15T17:22:30.323Z,11.63
2023-04-15T17:25:17.666Z,11.47
2023-04-15T17:28:04.631Z,11.43
2023-04-15T17:30:52.582Z,11.25
2023-04-15T17:34:03.634Z,11.05
2023-04-15T17:36:48.212Z,11.44
2023-04-15T17:39:35.013Z,11.44
2023-04-15T17:42:22.878Z,11.57
2023-04-15T17:45:10.239Z,11.48
2023-04-15T17:47:57.217Z,11.41
2023-04-15T17:50:44.227Z,11.37
2023-04-15T17:53:31.123Z,11.33
2023-04-15T17:56:18.049Z,11.21
2023-04-15T17:59:05.056Z,10.91
2023-04-15T18:01:52.133Z,10.99
2023-04-15T18:04:39.785Z,11.00
2023-04-15T18:07:26.698Z,10.88
2023-04-15T18:10:13.570Z,10.81
2023-04-15T18:13:02.398Z,11.15
2023-04-15T18:15:50.782Z,11.18
2023-04-15T18:18:37.657Z,10.97
2023-04-15T18:21:24.506Z,11.09
2023-04-15T18:24:11.596Z,10.97
2023-04-15T18:26:59.113Z,11.01
2023-04-15T18:29:46.145Z,11.02
2023-04-15T18:32:33.136Z,11.19
2023-04-15T18:35:20.736Z,11.31
2023-04-15T18:38:07.917Z,11.30
2023-04-15T18:40:54.818Z,11.34
2023-04-15T18:43:41.671Z,11.26
2023-04-15T18:46:28.911Z,11.37
2023-04-15T18:49:15.853Z,11.21
2023-04-15T18:52:02.687Z,11.14
2023-04-15T18:54:49.785Z,11.33
2023-04-15T18:57:42.376Z,11.34
2023-04-15T19:00:31.260Z,11.33
2023-04-15T19:03:18.162Z,11.24
2023-04-15T19:06:05.179Z,11.34
2023-04-15T19:08:52.174Z,11.23
2023-04-15T19:11:39.124Z,11.11
2023-04-15T19:14:26.048Z,11.25
2023-04-15T19:17:12.905Z,11.15
2023-04-15T19:19:59.926Z,11.08
2023-04-15T19:22:47.335Z,11.16
2023-04-15T19:25:34.223Z,11.07
2023-04-15T19:28:21.074Z,11.10
2023-04-15T19:31:08.025Z,11.11
2023-04-15T19:33:54.867Z,11.04
2023-04-15T19:36:42.524Z,11.03
2023-04-15T19:39:29.705Z,10.71
2023-04-15T19:42:17.914Z,10.88
2023-04-15T19:45:05.261Z,11.05
2023-04-15T19:47:53.446Z,11.01
2023-04-15T19:50:40.532Z,11.00
